createdAt,value
2023-04-04T00:00:43.961Z,9.22
2023-04-04T00:03:11.813Z,9.22
2023-04-04T00:05:40.067Z,9.20
2023-04-04T00:08:07.811Z,9.19
2023-04-04T00:10:35.473Z,9.16
2023-04-04T00:13:05.826Z,9.15
2023-04-04T00:15:34.619Z,9.11
2023-04-04T00:18:02.532Z,9.11
2023-04-04T00:20:30.741Z,9.09
2023-04-04T00:22:58.932Z,9.08
2023-04-04T00:25:26.604Z,9.05
2023-04-04T00:27:54.601Z,9.03
2023-04-04T00:30:24.854Z,9.03
2023-04-04T00:32:52.793Z,8.99
2023-04-04T00:35:21.031Z,8.96
2023-04-04T00:37:48.712Z,8.95
2023-04-04T00:40:16.427Z,8.93
2023-04-04T00:42:44.349Z,8.90
2023-04-04T00:45:12.550Z,8.90
2023-04-04T00:47:45.231Z,8.88
2023-04-04T00:50:12.969Z,8.85
2023-04-04T00:52:41.030Z,8.84
2023-04-04T00:55:10.358Z,8.81
2023-04-04T00:57:38.099Z,8.78
2023-04-04T01:00:07.662Z,8.76
2023-04-04T01:02:37.119Z,8.75
2023-04-04T01:05:07.439Z,8.75
2023-04-04T01:07:37.243Z,8.71
2023-04-04T01:10:06.450Z,8.71
2023-04-04T01:12:35.058Z,8.70
2023-04-04T01:15:02.955Z,8.67
2023-04-04T01:17:31.248Z,8.65
2023-04-04T01:20:03.928Z,8.67
2023-04-04T01:22:34.681Z,8.62
2023-04-04T01:25:03.123Z,8.61
2023-04-04T01:27:32.162Z,8.60
2023-04-04T01:30:00.250Z,8.59
2023-04-04T01:32:33.312Z,8.58
2023-04-04T01:35:14.955Z,8.56
2023-04-04T01:37:50.406Z,8.52
2023-04-04T01:40:22.127Z,8.51
2023-04-04T01:42:52.912Z,8.49
2023-04-04T01:45:23.255Z,8.48
2023-04-04T01:47:51.020Z,8.44
2023-04-04T01:50:18.792Z,8.42
2023-04-04T01:52:47.318Z,8.38
2023-04-04T01:55:15.139Z,8.38
2023-04-04T01:57:42.907Z,8.34
2023-04-04T02:00:13.641Z,8.34
2023-04-04T02:02:41.370Z,8.30
2023-04-04T02:05:09.640Z,8.29
2023-04-04T02:07:37.749Z,8.25
2023-04-04T02:10:06.315Z,8.25
2023-04-04T02:12:34.213Z,8.22
2023-04-04T02:15:02.196Z,8.20
2023-04-04T02:17:31.284Z,8.18
2023-04-04T02:19:58.972Z,8.15
2023-04-04T02:22:26.917Z,8.13
2023-04-04T02:24:54.768Z,8.12
2023-04-04T02:27:22.415Z,8.09
2023-04-04T02:29:50.430Z,8.06
2023-04-04T02:32:18.353Z,8.04
2023-04-04T02:34:47.606Z,8.02
2023-04-04T02:37:15.449Z,8.00
2023-04-04T02:39:43.105Z,7.96
2023-04-04T02:42:10.747Z,7.95
2023-04-04T02:44:38.680Z,7.93
2023-04-04T02:47:07.286Z,7.90
2023-04-04T02:49:35.765Z,7.86
2023-04-04T02:52:05.096Z,7.84
2023-04-04T02:54:33.052Z,7.79
2023-04-04T02:57:00.901Z,7.76
2023-04-04T02:59:29.306Z,7.73
2023-04-04T03:01:57.038Z,7.69
2023-04-04T03:04:24.932Z,7.65
2023-04-04T03:06:52.884Z,7.60
2023-04-04T03:09:21.948Z,7.57
2023-04-04T03:11:51.501Z,7.53
2023-04-04T03:14:19.403Z,7.48
2023-04-04T03:16:49.838Z,7.45
2023-04-04T03:19:17.594Z,7.42
2023-04-04T03:21:45.771Z,7.36
2023-04-04T03:24:13.796Z,7.34
2023-04-04T03:26:43.097Z,7.31
2023-04-04T03:29:11.285Z,7.27
2023-04-04T03:31:38.999Z,7.22
2023-04-04T03:34:06.708Z,7.20
2023-04-04T03:36:34.760Z,7.15
2023-04-04T03:39:02.865Z,7.13
2023-04-04T03:41:30.546Z,7.12
2023-04-04T03:43:59.924Z,7.10
2023-04-04T03:46:27.703Z,7.08
2023-04-04T03:48:55.571Z,7.06
2023-04-04T03:51:26.584Z,7.07
2023-04-04T03:53:54.540Z,7.04
2023-04-04T03:56:22.220Z,7.02
2023-04-04T03:58:50.273Z,6.99
2023-04-04T04:01:19.298Z,6.99
2023-04-04T04:03:47.023Z,6.96
2023-04-04T04:06:15.095Z,6.96
2023-04-04T04:08:42.789Z,6.94
2023-04-04T04:11:10.483Z,6.93
2023-04-04T04:13:39.260Z,6.91
2023-04-04T04:16:07.624Z,6.90
2023-04-04T04:18:37.369Z,6.90
2023-04-04T04:21:05.485Z,6.87
2023-04-04T04:23:33.321Z,6.85
2023-04-04T04:26:00.966Z,6.83
2023-04-04T04:28:33.539Z,6.80
2023-04-04T04:31:05.688Z,6.80
2023-04-04T04:33:33.764Z,6.75
2023-04-04T04:36:04.728Z,6.75
2023-04-04T04:38:32.507Z,6.71
2023-04-04T04:41:00.609Z,6.71
2023-04-04T04:43:28.444Z,6.69
2023-04-04T04:45:56.632Z,6.66
2023-04-04T04:48:24.881Z,6.64
2023-04-04T04:50:52.545Z,6.61
2023-04-04T04:53:21.633Z,6.59
2023-04-04T04:55:51.475Z,6.59
2023-04-04T04:58:21.192Z,6.57
2023-04-04T05:00:48.706Z,6.62
2023-04-04T05:03:16.892Z,6.59
2023-04-04T05:05:44.734Z,6.57
2023-04-04T05:08:12.409Z,6.54
2023-04-04T05:10:42.011Z,6.52
2023-04-04T05:13:10.608Z,6.51
2023-04-04T05:15:38.705Z,6.51
2023-04-04T05:18:06.812Z,6.51
2023-04-04T05:20:34.483Z,6.51
2023-04-04T05:23:02.171Z,6.51
2023-04-04T05:25:30.253Z,6.51
2023-04-04T05:27:59.280Z,6.52
2023-04-04T05:30:26.960Z,6.53
2023-04-04T05:32:55.846Z,6.54
2023-04-04T05:35:23.671Z,6.56
2023-04-04T05:37:51.360Z,6.58
2023-04-04T05:40:19.564Z,6.61
2023-04-04T05:42:55.266Z,6.65
2023-04-04T05:45:24.581Z,6.67
2023-04-04T05:47:52.534Z,6.69
2023-04-04T05:50:20.300Z,6.74
2023-04-04T05:52:48.378Z,6.80
2023-04-04T05:55:16.784Z,6.86
2023-04-04T05:57:49.719Z,6.94
2023-04-04T06:00:19.428Z,7.01
2023-04-04T06:02:48.637Z,7.10
2023-04-04T06:05:17.094Z,7.17
2023-04-04T06:07:44.756Z,7.25
2023-04-04T06:10:12.560Z,7.33
2023-04-04T06:12:40.667Z,7.38
2023-04-04T06:15:09.267Z,7.42
2023-04-04T06:17:37.100Z,7.46
2023-04-04T06:20:08.728Z,7.53
2023-04-04T06:22:36.421Z,7.57
2023-04-04T06:25:04.408Z,7.60
2023-04-04T06:27:32.444Z,7.62
2023-04-04T06:30:00.280Z,7.66
2023-04-04T06:32:28.040Z,7.70
2023-04-04T06:34:56.228Z,7.73
2023-04-04T06:37:25.397Z,7.78
2023-04-04T06:39:53.703Z,7.82
2023-04-04T06:42:21.765Z,7.86
2023-04-04T06:44:49.407Z,7.90
2023-04-04T06:47:17.064Z,7.92
2023-04-04T06:49:45.051Z,7.95
2023-04-04T06:52:12.948Z,7.97
2023-04-04T06:54:42.109Z,8.04
2023-04-04T06:57:10.221Z,8.05
2023-04-04T06:59:38.300Z,8.08
2023-04-04T07:02:05.999Z,8.15
2023-04-04T07:04:35.594Z,8.20
2023-04-04T07:07:03.622Z,8.27
2023-04-04T07:09:31.428Z,8.30
2023-04-04T07:12:01.330Z,8.44
2023-04-04T07:14:29.112Z,8.55
2023-04-04T07:16:58.270Z,8.68
2023-04-04T07:19:29.137Z,8.76
2023-04-04T07:21:57.462Z,8.81
2023-04-04T07:24:25.130Z,9.00
2023-04-04T07:26:53.274Z,9.12
2023-04-04T07:29:22.454Z,9.21
2023-04-04T07:31:50.165Z,9.30
2023-04-04T07:34:18.682Z,9.39
2023-04-04T07:36:46.701Z,9.45
2023-04-04T07:39:14.379Z,9.51
2023-04-04T07:41:42.755Z,9.61
2023-04-04T07:44:10.709Z,9.70
2023-04-04T07:46:40.609Z,9.81
2023-04-04T07:51:56.959Z,10.05
2023-04-04T07:54:25.360Z,10.19
2023-04-04T07:56:54.110Z,10.29
2023-04-04T07:59:21.993Z,10.42
2023-04-04T08:01:51.708Z,10.48
2023-04-04T08:04:19.616Z,10.62
2023-04-04T08:06:47.494Z,10.72
2023-04-04T08:09:15.707Z,10.82
2023-04-04T08:11:43.723Z,10.88
2023-04-04T08:14:11.976Z,10.98
2023-04-04T08:16:40.200Z,11.05
2023-04-04T08:19:09.804Z,11.12
2023-04-04T08:21:37.329Z,11.23
2023-04-04T08:24:05.577Z,11.30
2023-04-04T08:26:33.243Z,11.32
2023-04-04T08:29:01.482Z,11.35
2023-04-04T08:31:30.196Z,11.33
2023-04-04T08:33:57.907Z,10.92
2023-04-04T08:36:26.968Z,10.93
2023-04-04T08:38:55.073Z,11.01
2023-04-04T08:41:22.955Z,11.10
2023-04-04T08:43:54.490Z,10.97
2023-04-04T08:46:23.406Z,11.10
2023-04-04T08:48:53.085Z,11.13
2023-04-04T08:51:21.467Z,10.79
2023-04-04T08:53:51.627Z,11.06
2023-04-04T08:56:19.587Z,11.14
2023-04-04T08:58:47.490Z,11.27
2023-04-04T09:01:16.977Z,11.38
2023-04-04T09:03:45.393Z,11.50
2023-04-04T09:06:14.729Z,11.58
2023-04-04T09:08:44.318Z,11.10
2023-04-04T09:11:14.673Z,10.98
2023-04-04T09:13:46.374Z,10.78
2023-04-04T09:16:14.137Z,10.98
2023-04-04T09:18:41.992Z,10.88
2023-04-04T09:21:14.141Z,11.05
2023-04-04T09:23:41.836Z,11.13
2023-04-04T09:26:09.510Z,11.24
2023-04-04T09:28:39.204Z,10.98
2023-04-04T09:31:09.900Z,10.81
2023-04-04T09:33:40.309Z,11.03
2023-04-04T09:36:10.389Z,11.12
2023-04-04T09:38:40.874Z,11.20
2023-04-04T09:41:09.704Z,11.31
2023-04-04T09:43:41.437Z,11.44
2023-04-04T09:46:09.236Z,11.54
2023-04-04T09:48:37.563Z,11.66
2023-04-04T09:51:07.245Z,11.54
2023-04-04T09:53:39.810Z,11.64
2023-04-04T09:56:08.811Z,11.78
2023-04-04T09:58:39.116Z,11.80
2023-04-04T10:01:14.430Z,11.43
2023-04-04T10:03:42.196Z,11.20
2023-04-04T10:06:11.211Z,11.07
2023-04-04T10:08:43.624Z,11.37
2023-04-04T10:11:12.679Z,11.21
2023-04-04T10:13:42.281Z,11.46
2023-04-04T10:16:12.409Z,11.59
2023-04-04T10:18:41.748Z,11.62
2023-04-04T10:23:43.341Z,11.77
2023-04-04T10:26:12.585Z,11.87
2023-04-04T10:28:40.551Z,11.88
2023-04-04T10:31:16.700Z,11.88
2023-04-04T10:33:53.510Z,11.62
2023-04-04T10:36:24.605Z,11.91
2023-04-04T10:39:04.791Z,12.03
2023-04-04T10:41:34.082Z,12.13
2023-04-04T10:44:10.623Z,12.24
2023-04-04T10:46:43.106Z,12.38
2023-04-04T10:49:13.115Z,12.41
2023-04-04T10:51:53.045Z,12.41
2023-04-04T10:54:23.950Z,12.53
2023-04-04T10:56:52.323Z,12.65
2023-04-04T10:59:20.131Z,12.74
2023-04-04T11:01:50.276Z,12.77
2023-04-04T11:04:21.405Z,12.88
2023-04-04T11:07:12.710Z,12.97
2023-04-04T11:09:51.365Z,12.78
2023-04-04T11:12:24.277Z,12.96
2023-04-04T11:15:10.785Z,13.06
2023-04-04T11:18:05.987Z,12.96
2023-04-04T11:20:45.553Z,12.77
2023-04-04T11:23:20.074Z,12.82
2023-04-04T11:25:54.955Z,12.77
2023-04-04T11:28:46.712Z,12.34
2023-04-04T11:31:29.556Z,12.33
2023-04-04T11:34:04.462Z,12.29
2023-04-04T11:36:53.381Z,12.22
2023-04-04T11:39:28.904Z,12.13
2023-04-04T11:42:03.435Z,12.15
2023-04-04T11:44:33.970Z,12.35
2023-04-04T11:47:05.251Z,12.37
2023-04-04T11:49:37.925Z,12.22
2023-04-04T11:52:10.021Z,12.19
2023-04-04T11:54:39.451Z,12.28
2023-04-04T11:57:08.166Z,12.11
2023-04-04T11:59:41.641Z,12.39
2023-04-04T12:02:11.154Z,12.52
2023-04-04T12:04:42.819Z,12.64
2023-04-04T12:07:15.540Z,12.68
2023-04-04T12:09:43.593Z,12.87
2023-04-04T12:12:14.293Z,12.92
2023-04-04T12:14:42.500Z,12.74
2023-04-04T12:17:10.285Z,12.92
2023-04-04T12:19:39.616Z,13.05
2023-04-04T12:22:08.771Z,13.00
2023-04-04T12:24:37.936Z,13.13
2023-04-04T12:27:07.093Z,13.21
2023-04-04T12:29:37.748Z,13.31
2023-04-04T12:32:07.533Z,13.41
2023-04-04T12:34:36.111Z,13.46
2023-04-04T12:37:04.321Z,13.25
2023-04-04T12:39:32.212Z,13.39
2023-04-04T12:42:03.500Z,13.21
2023-04-04T12:44:32.625Z,13.35
2023-04-04T12:47:01.587Z,13.39
2023-04-04T12:49:31.159Z,13.45
2023-04-04T12:52:03.964Z,13.14
2023-04-04T12:54:34.024Z,13.14
2023-04-04T12:57:05.857Z,13.11
2023-04-04T12:59:34.988Z,13.00
2023-04-04T13:02:03.226Z,13.19
2023-04-04T13:04:31.379Z,13.26
2023-04-04T13:07:00.421Z,13.33
2023-04-04T13:09:28.427Z,13.41
2023-04-04T13:12:02.147Z,13.43
2023-04-04T13:14:57.569Z,13.35
2023-04-04T13:17:25.735Z,13.43
2023-04-04T13:19:53.517Z,13.11
2023-04-04T13:22:21.188Z,13.18
2023-04-04T13:24:49.119Z,13.18
2023-04-04T13:27:16.796Z,13.33
2023-04-04T13:29:46.221Z,13.43
2023-04-04T13:32:14.169Z,13.49
2023-04-04T13:34:41.812Z,13.60
2023-04-04T13:37:09.561Z,13.67
2023-04-04T13:39:38.075Z,13.70
2023-04-04T13:42:05.823Z,13.81
2023-04-04T13:44:33.488Z,13.70
2023-04-04T13:47:03.762Z,13.76
2023-04-04T13:49:31.483Z,13.82
2023-04-04T13:52:00.151Z,13.75
2023-04-04T13:54:29.786Z,13.40
2023-04-04T13:56:59.337Z,13.46
2023-04-04T13:59:30.343Z,13.17
2023-04-04T14:01:58.260Z,13.35
2023-04-04T14:04:27.414Z,13.47
2023-04-04T14:06:55.607Z,13.44
2023-04-04T14:09:24.163Z,13.57
2023-04-04T14:11:51.851Z,13.57
2023-04-04T14:14:20.020Z,13.54
2023-04-04T14:16:47.705Z,13.63
2023-04-04T14:19:15.517Z,13.74
2023-04-04T14:21:45.110Z,13.80
2023-04-04T14:24:12.798Z,13.88
2023-04-04T14:26:40.487Z,13.79
2023-04-04T14:29:10.370Z,13.91
2023-04-04T14:31:38.145Z,13.97
2023-04-04T14:34:06.146Z,14.00
2023-04-04T14:36:34.589Z,13.77
2023-04-04T14:39:03.651Z,13.78
2023-04-04T14:41:31.415Z,13.69
2023-04-04T14:43:59.646Z,13.71
2023-04-04T14:46:27.378Z,13.62
2023-04-04T14:48:55.160Z,13.72
2023-04-04T14:51:23.482Z,13.55
2023-04-04T14:53:52.417Z,13.65
2023-04-04T14:56:23.396Z,13.76
2023-04-04T14:58:52.038Z,13.55
2023-04-04T15:01:21.403Z,13.63
2023-04-04T15:03:49.127Z,13.73
2023-04-04T15:06:17.538Z,13.65
2023-04-04T15:08:45.193Z,13.75
2023-04-04T15:11:13.204Z,13.81
2023-04-04T15:13:42.754Z,13.89
2023-04-04T15:16:10.712Z,13.94
2023-04-04T15:18:38.431Z,13.63
2023-04-04T15:21:07.301Z,13.72
2023-04-04T15:23:34.976Z,13.60
2023-04-04T15:26:02.935Z,13.48
2023-04-04T15:28:31.212Z,13.57
2023-04-04T15:31:03.335Z,13.68
2023-04-04T15:33:31.784Z,13.71
2023-04-04T15:35:59.448Z,13.60
2023-04-04T15:38:27.112Z,13.67
2023-04-04T15:40:55.251Z,13.73
2023-04-04T15:43:23.973Z,13.80
2023-04-04T15:45:51.681Z,13.84
2023-04-04T15:48:21.228Z,13.74
2023-04-04T15:50:48.959Z,13.75
2023-04-04T15:53:17.729Z,13.77
2023-04-04T15:55:46.089Z,13.64
2023-04-04T15:58:14.050Z,13.66
2023-04-04T16:03:36.541Z,13.84
2023-04-04T16:06:06.878Z,13.89
2023-04-04T16:08:34.542Z,13.92
2023-04-04T16:11:03.255Z,13.91
2023-04-04T16:13:31.699Z,13.95
2023-04-04T16:15:59.503Z,13.98
2023-04-04T16:18:27.312Z,13.94
2023-04-04T16:20:56.989Z,13.99
2023-04-04T16:23:24.485Z,14.04
2023-04-04T16:25:52.325Z,14.03
2023-04-04T16:28:20.573Z,14.03
2023-04-04T16:30:48.247Z,13.99
2023-04-04T16:33:16.137Z,13.96
2023-04-04T16:35:44.565Z,13.92
2023-04-04T16:38:13.633Z,13.74
2023-04-04T16:40:43.022Z,13.81
2023-04-04T16:43:11.518Z,13.66
2023-04-04T16:45:39.184Z,13.47
2023-04-04T16:48:07.062Z,13.61
2023-04-04T16:50:35.369Z,13.57
2023-04-04T16:53:04.005Z,13.53
2023-04-04T16:55:33.041Z,13.44
2023-04-04T16:58:01.302Z,13.42
2023-04-04T17:00:29.417Z,13.50
2023-04-04T17:02:58.187Z,13.55
2023-04-04T17:05:26.577Z,13.59
2023-04-04T17:07:54.244Z,13.65
2023-04-04T17:10:22.151Z,13.67
2023-04-04T17:12:51.433Z,13.64
2023-04-04T17:15:19.136Z,13.69
2023-04-04T17:17:47.019Z,13.72
2023-04-04T17:20:18.424Z,13.73
2023-04-04T17:22:46.280Z,13.72
2023-04-04T17:25:14.138Z,13.72
2023-04-04T17:27:42.360Z,13.60
2023-04-04T17:30:13.219Z,13.40
2023-04-04T17:32:41.235Z,13.53
2023-04-04T17:35:09.747Z,13.49
2023-04-04T17:37:37.433Z,13.42
2023-04-04T17:40:05.852Z,13.42
2023-04-04T17:42:34.047Z,13.30
2023-04-04T17:45:01.820Z,13.20
2023-04-04T17:47:31.124Z,13.11
2023-04-04T17:49:59.389Z,13.09
2023-04-04T17:52:27.107Z,13.10
2023-04-04T17:54:55.044Z,13.11
2023-04-04T17:57:23.228Z,13.01
2023-04-04T17:59:51.193Z,13.10
2023-04-04T18:02:19.471Z,13.15
2023-04-04T18:04:49.014Z,12.99
2023-04-04T18:07:16.941Z,12.81
2023-04-04T18:09:44.618Z,12.97
2023-04-04T18:12:13.414Z,12.97
2023-04-04T18:14:41.200Z,12.99
2023-04-04T18:17:08.932Z,12.95
2023-04-04T18:19:38.951Z,13.00
2023-04-04T18:22:09.323Z,12.98
2023-04-04T18:24:37.971Z,13.02
2023-04-04T18:27:06.085Z,13.05
2023-04-04T18:29:33.763Z,13.04
2023-04-04T18:32:03.088Z,13.05
2023-04-04T18:34:30.992Z,13.07
2023-04-04T18:36:58.712Z,13.06
2023-04-04T18:39:28.495Z,13.08
2023-04-04T18:41:56.670Z,13.07
2023-04-04T18:44:24.423Z,13.07
2023-04-04T18:46:52.635Z,13.06
2023-04-04T18:49:20.336Z,13.04
2023-04-04T18:51:48.340Z,12.99
2023-04-04T18:54:16.764Z,13.03
2023-04-04T18:56:45.826Z,13.01
2023-04-04T18:59:13.783Z,13.00
2023-04-04T19:01:42.214Z,12.98
2023-04-04T19:04:11.462Z,12.95
2023-04-04T19:06:41.398Z,12.92
2023-04-04T19:09:11.520Z,12.91
2023-04-04T19:11:39.572Z,12.85
2023-04-04T19:14:09.405Z,12.85
2023-04-04T19:16:37.798Z,12.80
2023-04-04T19:19:05.861Z,12.76
2023-04-04T19:21:33.562Z,12.73
2023-04-04T19:24:01.950Z,12.67
2023-04-04T19:26:29.613Z,12.63
2023-04-04T19:28:57.308Z,12.60
2023-04-04T19:31:30.404Z,12.57
2023-04-04T19:33:58.234Z,12.51
2023-04-04T19:36:26.251Z,12.46
2023-04-04T19:38:55.244Z,12.42
2023-04-04T19:41:34.409Z,12.41
2023-04-04T19:44:02.679Z,12.36
2023-04-04T19:46:33.851Z,12.33
2023-04-04T19:49:03.452Z,12.28
2023-04-04T19:51:40.090Z,12.27
2023-04-04T19:54:12.486Z,12.19
2023-04-04T19:56:40.165Z,12.18
2023-04-04T19:59:10.550Z,12.15
2023-04-04T20:01:47.299Z,12.12
2023-04-04T20:04:21.663Z,12.08
2023-04-04T20:06:49.885Z,12.05
2023-04-04T20:09:34.810Z,12.03
2023-04-04T20:12:03.016Z,11.98
2023-04-04T20:14:30.883Z,11.95
2023-04-04T20:16:59.935Z,11.92
2023-04-04T20:19:30.107Z,11.87
2023-04-04T20:21:57.843Z,11.82
2023-04-04T20:24:25.823Z,11.78
2023-04-04T20:26:59.296Z,11.75
2023-04-04T20:29:28.630Z,11.72
2023-04-04T20:31:57.582Z,11.66
2023-04-04T20:34:33.218Z,11.65
2023-04-04T20:37:02.868Z,11.58
2023-04-04T20:39:38.295Z,11.61
2023-04-04T20:42:17.658Z,11.57
2023-04-04T20:44:45.550Z,11.50
2023-04-04T20:47:38.336Z,11.46
2023-04-04T20:50:41.630Z,11.40
2023-04-04T20:53:18.263Z,11.35
2023-04-04T20:55:46.242Z,11.27
2023-04-04T20:58:26.126Z,11.24
2023-04-04T21:00:54.133Z,11.16
2023-04-04T21:03:31.051Z,11.12
2023-04-04T21:06:02.599Z,11.08
2023-04-04T21:08:48.244Z,11.01
2023-04-04T21:11:24.313Z,10.99
2023-04-04T21:13:52.122Z,10.92
2023-04-04T21:16:23.680Z,10.88
2023-04-04T21:18:57.751Z,10.85
2023-04-04T21:21:26.549Z,10.79
2023-04-04T21:23:57.784Z,10.78
2023-04-04T21:26:31.218Z,10.74
2023-04-04T21:29:01.060Z,10.69
2023-04-04T21:31:35.465Z,10.67
2023-04-04T21:34:09.777Z,10.63
2023-04-04T21:36:37.770Z,10.54
2023-04-04T21:39:12.094Z,10.55
2023-04-04T21:41:40.486Z,10.51
2023-04-04T21:44:09.616Z,10.47
2023-04-04T21:46:39.773Z,10.44
2023-04-04T21:49:08.941Z,10.40
2023-04-04T21:51:37.371Z,10.35
2023-04-04T21:54:06.114Z,10.29
2023-04-04T21:56:35.404Z,10.27
2023-04-04T21:59:04.637Z,10.23
2023-04-04T22:01:33.346Z,10.19
2023-04-04T22:04:01.069Z,10.15
2023-04-04T22:06:30.708Z,10.10
2023-04-04T22:08:59.445Z,10.14
2023-04-04T22:11:28.623Z,10.06
2023-04-04T22:14:07.842Z,10.02
2023-04-04T22:16:39.812Z,9.96
2023-04-04T22:19:11.940Z,9.90
2023-04-04T22:21:47.656Z,9.84
2023-04-04T22:24:18.840Z,9.80
2023-04-04T22:26:47.660Z,9.77
2023-04-04T22:29:16.725Z,9.74
2023-04-04T22:31:44.983Z,9.70
2023-04-04T22:34:15.186Z,9.67
2023-04-04T22:36:43.756Z,9.65
2023-04-04T22:39:12.536Z,9.60
2023-04-04T22:41:40.237Z,9.58
2023-04-04T22:44:07.938Z,9.54
2023-04-04T22:46:37.521Z,9.53
2023-04-04T22:49:08.804Z,9.49
2023-04-04T22:51:44.117Z,9.42
2023-04-04T22:54:14.234Z,9.42
2023-04-04T22:56:42.243Z,9.39
2023-04-04T22:59:10.540Z,9.36
2023-04-04T23:01:39.975Z,9.33
2023-04-04T23:04:07.963Z,9.27
2023-04-04T23:06:36.724Z,9.22
2023-04-04T23:09:04.493Z,9.19
2023-04-04T23:11:32.237Z,9.15
2023-04-04T23:14:00.929Z,9.10
2023-04-04T23:16:28.824Z,9.07
2023-04-04T23:18:58.093Z,9.05
2023-04-04T23:21:26.590Z,9.02
2023-04-04T23:23:54.252Z,9.00
2023-04-04T23:26:21.926Z,8.98
2023-04-04T23:28:50.340Z,8.95
2023-04-04T23:31:18.232Z,8.93
2023-04-04T23:33:46.158Z,8.91
2023-04-04T23:36:16.141Z,8.90
2023-04-04T23:38:43.823Z,8.87
2023-04-04T23:41:12.461Z,8.85
2023-04-04T23:43:43.228Z,8.83
2023-04-04T23:46:14.437Z,8.80
2023-04-04T23:48:42.405Z,8.77
2023-04-04T23:51:11.578Z,8.76
2023-04-04T23:53:40.807Z,8.74
2023-04-04T23:56:09.004Z,8.71
2023-04-04T23:58:38.574Z,8.68
